W4TTU-1 Weather Reports


Display with metric or nautical units.
time (UTC)temp
F
wind
direction
speed
MPH
gust
MPH
rain 1hr
in
rain 24hr
in
rain mn
in
humidity
%
barometer
mb
20240304123733 22 295 2.0 10.0 0.00 0.00 0.00 44 839.9
20240304122233 22 243 11.0 13.0 0.00 0.00 0.00 44 839.7
20240304115232 23 229 6.0 6.0 0.00 0.00 0.00 44 839.5
20240304113731 23 247 6.0 8.0 0.00 0.00 0.00 43 839.4
20240304112231 23 270 3.0 6.0 0.00 0.00 0.00 43 839.2
20240304105230 23 243 10.0 10.0 0.00 0.00 0.00 43 838.9
20240304103729 23 225 1.0 2.0 0.00 0.00 0.00 43 838.8
20240304102229 23 234 7.0 8.0 0.00 0.00 0.00 43 838.9
20240304100728 23 231 5.0 11.0 0.00 0.00 0.00 43 838.7
20240304095228 24 222 6.0 14.0 0.00 0.00 0.00 43 838.6
20240304093727 24 270 6.0 13.0 0.00 0.00 0.00 43 838.6
20240304092227 24 243 2.0 10.0 0.00 0.00 0.00 42 838.6
20240304085226 24 247 7.0 9.0 0.00 0.00 0.00 42 838.6
20240304083730 23 247 3.0 9.0 0.00 0.00 0.00 42 838.5
20240304082225 23 270 4.0 7.0 0.00 0.00 0.00 42 838.6
20240304075224 23 225 3.0 9.0 0.00 0.00 0.00 42 838.5
20240304072222 23 317 3.0 7.0 0.00 0.00 0.00 41 838.4
20240304065221 23 0 1.0 3.0 0.00 0.00 0.00 41 838.3
20240304063723 23 315 0.0 0.0 0.00 0.00 0.00 41 838.3
20240304062221 23 270 0.0 1.0 0.00 0.00 0.00 41 838.3
20240304055216 24 216 4.0 4.0 0.00 0.00 0.00 41 838.2
20240304052215 25 225 1.0 4.0 0.00 0.00 0.00 40 838.2
20240304050718 25 45 0.0 0.0 0.00 0.00 0.00 39 838.1
20240304043717 27 135 0.0 0.0 0.00 0.00 0.00 39 838.0
20240304042213 28 315 0.0 0.0 0.00 0.00 0.00 39 837.8
20240304035212 29 315 1.0 2.0 0.00 0.00 0.00 39 837.5
20240304032211 31 270 0.0 0.0 0.00 0.00 0.00 38 837.2
20240304030713 32 315 0.0 1.0 0.00 0.00 0.00 37 837.1
20240304025210 33 315 0.0 3.0 0.00 0.00 0.00 37 836.9
20240304022209 35 225 1.0 5.0 0.00 0.00 0.00 36 836.4
20240304020710 37 315 1.0 3.0 0.00 0.00 0.00 36 836.3
20240304015208 38 0 4.0 4.0 0.00 0.00 0.00 35 836.1
20240304012207 42 335 3.0 4.0 0.00 0.00 0.00 35 835.5
20240304010708 44 326 2.0 5.0 0.00 0.00 0.00 34 835.1
20240304005206 46 270 2.0 5.0 0.00 0.00 0.00 34 835.0
20240304003705 48 261 3.0 5.0 0.00 0.00 0.00 33 834.7
20240304002205 50 265 6.0 6.0 0.00 0.00 0.00 32 834.4
20240304000705 51 270 5.0 9.0 0.00 0.00 0.00 32 834.1
20240303235204 53 258 6.0 9.0 0.00 0.00 0.00 33 833.9
20240303233704 54 261 4.0 10.0 0.00 0.00 0.03 33 833.7
20240303232203 54 245 4.0 11.0 0.00 0.00 0.03 33 833.5
20240303230702 55 235 7.0 13.0 0.00 0.00 0.03 33 833.3
20240303225202 56 245 14.0 23.0 0.00 0.00 0.03 33 833.1
20240303223701 57 265 15.0 20.0 0.00 0.00 0.03 34 833.0
20240303222201 57 247 16.0 16.0 0.00 0.00 0.03 34 832.9
20240303212158 55 262 4.0 17.0 0.00 0.00 0.03 37 832.6
20240303210658 54 258 6.0 14.0 0.00 0.00 0.03 38 832.7
20240303205157 52 256 3.0 11.0 0.00 0.00 0.03 39 832.7
20240303203657 51 236 8.0 16.0 0.00 0.00 0.03 39 833.0
20240303202156 49 235 7.0 13.0 0.00 0.00 0.03 40 833.0
20240303200656 47 258 5.0 14.0 0.00 0.00 0.03 41 833.1
20240303195155 46 265 11.0 13.0 0.00 0.00 0.03 41 833.2
20240303193655 45 265 14.0 25.0 0.00 0.00 0.03 41 833.2
20240303192154 44 229 16.0 17.0 0.00 0.00 0.03 41 833.4
20240303185153 42 261 8.0 15.0 0.00 0.00 0.03 43 833.3
20240303183653 41 229 7.0 15.0 0.00 0.00 0.03 44 833.5
20240303182152 39 225 12.0 18.0 0.00 0.00 0.03 45 833.8
20240303180652 38 231 12.0 16.0 0.00 0.00 0.03 46 833.8
20240303175151 36 283 12.0 16.0 0.00 0.00 0.03 47 833.8
20240303173651 34 283 9.0 19.0 0.00 0.00 0.03 48 833.9
20240303172150 32 256 9.0 16.0 0.00 0.00 0.03 49 834.0
20240303170650 31 234 12.0 18.0 0.00 0.00 0.03 50 834.0
20240303165149 29 249 13.0 14.0 0.00 0.00 0.03 50 833.9
20240303162145 26 261 6.0 10.0 0.00 0.00 0.03 51 834.0
20240303160645 25 283 5.0 13.0 0.00 0.00 0.03 51 834.2
20240303152143 22 218 3.0 4.0 0.00 0.00 0.03 50 834.4
20240303145142 22 0 3.0 3.0 0.00 0.00 0.03 49 834.0
20240303143641 22 315 0.0 0.0 0.00 0.00 0.03 49 833.7
20240303142141 22 276 8.0 11.0 0.00 0.00 0.03 49 833.5
20240303140640 22 225 1.0 9.0 0.00 0.00 0.03 49 833.5
20240303135140 23 225 0.0 9.0 0.00 0.00 0.03 49 833.3
20240303133639 23 324 2.0 4.0 0.00 0.00 0.03 49 833.0
20240303132139 23 324 10.0 10.0 0.00 0.00 0.03 49 832.9
20240303130638 24 310 2.0 4.0 0.00 0.00 0.03 49 832.9
20240303125138 24 225 3.0 14.0 0.00 0.00 0.03 49 832.6